Kalamazoo Battle Creek International Airport Kalamazoo US
ICAO: KAZO
IATA: AZO
Category: Medium
Scheduled Services: Yes

Elevation: 874 ft
TransAlt. 18000 ft.

Airport Communications:
APP/DEP:119.2
ATIS:127.25
CLNC DEL:121.75
CTAF:118.3
GND:121.9
LANSING RDO:109
TWR:118.3
UNICOM:122.95

KAZO Zoom In..

Runways:

(A) RW 05 length 3439 ft width 100 ft
---- / hdg 48

(B) RW 09 length 2800 ft width 60 ft
---- / hdg 93

(C) RW 17 length 6502 ft width 150 ft
---- / hdg 174

(D) RW 23 length 3439 ft width 100 ft
---- / hdg 228

(E) RW 27 length 2800 ft width 60 ft
---- / hdg 273

(F) RW 35 length 6502 ft width 150 ft
ILS 110.90 / hdg 354

Location; KAZO
Day. 04 / Time. 16.53 Zulu
* Altimeter: 29.89
* Temperature: 07° c. 44.6°f.
* Wind from: 260° Speed 13 kn with Gusts up to 19 kn.
Dewpoint: -03° c.
Visibility: 10 Statute Miles.
Clouds: Few 8000 ft.

KAZO 041653Z 26013G19KT 10SM FEW080 07/M03 A2989 RMK AO2 SLP127 T00721028

Going to: --> -->


Wind From 260°
Speed 13 kn.

 
 
jpsmedia worldairports.se 2020   terms of use